createdAt,value
2017-10-26T00:01:17.485Z,5.90
2017-10-26T00:03:46.436Z,4.57
2017-10-26T00:06:16.156Z,4.90
2017-10-26T00:08:45.111Z,5.27
2017-10-26T00:11:14.086Z,5.60
2017-10-26T00:13:43.488Z,5.77
2017-10-26T00:16:12.434Z,5.60
2017-10-26T00:18:41.360Z,5.77
2017-10-26T00:21:11.158Z,5.90
2017-10-26T00:23:40.110Z,7.30
2017-10-26T00:26:09.827Z,6.53
2017-10-26T00:28:39.570Z,6.77
2017-10-26T00:31:08.498Z,6.97
2017-10-26T00:33:37.456Z,6.73
2017-10-26T00:36:06.395Z,6.53
2017-10-26T00:38:36.121Z,6.77
2017-10-26T00:41:05.861Z,6.33
2017-10-26T00:43:34.794Z,7.97
2017-10-26T00:46:03.756Z,6.30
2017-10-26T00:48:33.120Z,6.83
2017-10-26T00:51:02.081Z,7.90
2017-10-26T00:53:31.028Z,7.20
2017-10-26T00:55:59.992Z,7.70
2017-10-26T00:58:28.929Z,7.00
2017-10-26T01:00:58.658Z,7.53
2017-10-26T01:03:27.615Z,7.13
2017-10-26T01:05:56.591Z,8.30
2017-10-26T01:08:25.554Z,6.90
2017-10-26T01:10:55.263Z,6.50
2017-10-26T01:13:24.988Z,8.07
2017-10-26T01:15:53.957Z,7.23
2017-10-26T01:18:22.919Z,7.87
2017-10-26T01:20:52.225Z,8.20
2017-10-26T01:23:21.205Z,8.37
2017-10-26T01:25:50.563Z,7.87
2017-10-26T01:28:19.510Z,7.80
2017-10-26T01:30:48.446Z,8.60
2017-10-26T01:33:17.440Z,8.60
2017-10-26T01:35:46.391Z,8.63
2017-10-26T01:38:15.337Z,7.60
2017-10-26T01:40:44.332Z,8.27
2017-10-26T01:43:14.201Z,8.20
2017-10-26T01:45:43.113Z,8.70
2017-10-26T01:48:12.460Z,8.23
2017-10-26T01:50:41.439Z,8.63
2017-10-26T01:53:10.408Z,7.87
2017-10-26T01:55:39.412Z,8.90
2017-10-26T01:58:08.359Z,8.30
2017-10-26T02:00:38.091Z,7.87
2017-10-26T02:03:07.036Z,8.50
2017-10-26T02:05:35.998Z,7.77
2017-10-26T02:08:05.717Z,8.70
2017-10-26T02:10:34.672Z,8.90
2017-10-26T02:13:03.603Z,8.63
2017-10-26T02:15:32.569Z,9.50
2017-10-26T02:18:01.514Z,9.07
2017-10-26T02:20:31.240Z,8.60
2017-10-26T02:23:00.169Z,9.20
2017-10-26T02:25:29.924Z,9.40
2017-10-26T02:27:58.834Z,9.50
2017-10-26T02:30:51.498Z,9.63
2017-10-26T02:33:20.435Z,11.07
2017-10-26T02:35:49.505Z,11.57
2017-10-26T02:38:18.462Z,10.97
2017-10-26T02:40:47.431Z,11.67
2017-10-26T02:43:17.164Z,12.30
2017-10-26T02:45:46.668Z,11.10
2017-10-26T02:48:15.610Z,11.57
2017-10-26T02:50:44.676Z,11.53
2017-10-26T02:53:13.646Z,11.43
2017-10-26T02:55:42.603Z,11.00
2017-10-26T02:58:12.322Z,10.23
2017-10-26T03:00:42.069Z,12.20
2017-10-26T03:03:11.012Z,12.60
2017-10-26T03:05:40.737Z,11.77
2017-10-26T03:08:09.700Z,11.87
2017-10-26T03:10:38.685Z,11.70
2017-10-26T03:13:07.646Z,11.50
2017-10-26T03:15:36.615Z,12.00
2017-10-26T03:18:05.556Z,12.53
2017-10-26T03:20:34.574Z,11.53
2017-10-26T03:23:03.557Z,11.93
2017-10-26T03:25:32.523Z,12.13
2017-10-26T03:28:01.478Z,12.93
2017-10-26T03:30:30.467Z,11.70
2017-10-26T03:32:59.490Z,12.20
2017-10-26T03:35:28.469Z,13.37
2017-10-26T03:37:57.431Z,12.27
2017-10-26T03:40:26.396Z,11.50
2017-10-26T03:42:55.336Z,12.43
2017-10-26T03:45:24.309Z,13.03
2017-10-26T03:47:53.244Z,12.67
2017-10-26T03:50:22.205Z,12.60
2017-10-26T03:52:51.330Z,11.90
2017-10-26T03:55:20.345Z,14.00
2017-10-26T03:57:49.292Z,12.23
2017-10-26T04:00:19.298Z,11.63
2017-10-26T04:02:48.263Z,12.07
2017-10-26T04:05:18.073Z,12.30
2017-10-26T04:07:47.002Z,11.10
2017-10-26T04:10:15.975Z,11.47
2017-10-26T04:12:45.318Z,11.60
2017-10-26T04:15:14.307Z,12.00
2017-10-26T04:17:43.264Z,11.57
2017-10-26T04:20:12.245Z,10.83
2017-10-26T04:22:41.602Z,11.90
2017-10-26T04:25:10.594Z,12.57
2017-10-26T04:27:39.586Z,11.67
2017-10-26T04:30:08.612Z,10.63
2017-10-26T04:32:37.775Z,11.60
2017-10-26T04:35:06.743Z,10.57
2017-10-26T04:37:36.107Z,9.90
2017-10-26T04:40:05.094Z,10.00
2017-10-26T04:42:34.819Z,10.60
2017-10-26T04:45:03.804Z,11.63
2017-10-26T04:47:32.774Z,11.60
2017-10-26T04:50:02.405Z,13.90
2017-10-26T04:52:31.762Z,14.33
2017-10-26T04:55:00.742Z,15.10
2017-10-26T04:57:29.664Z,15.17
2017-10-26T04:59:59.438Z,15.03
2017-10-26T05:02:28.436Z,15.27
2017-10-26T05:04:57.442Z,15.83
2017-10-26T05:07:27.172Z,19.13
2017-10-26T05:09:56.917Z,17.17
2017-10-26T05:12:26.627Z,17.57
2017-10-26T05:14:55.675Z,18.57
2017-10-26T05:17:24.785Z,18.63
2017-10-26T05:19:54.550Z,20.13
2017-10-26T05:22:23.502Z,18.90
2017-10-26T05:24:52.871Z,17.63
2017-10-26T05:27:21.835Z,22.03
2017-10-26T05:29:50.775Z,19.43
2017-10-26T05:32:20.136Z,21.53
2017-10-26T05:34:50.662Z,20.60
2017-10-26T05:37:19.890Z,21.27
2017-10-26T05:39:49.603Z,21.37
2017-10-26T05:42:18.628Z,21.30
2017-10-26T05:44:47.564Z,24.67
2017-10-26T05:47:16.662Z,22.77
2017-10-26T05:49:45.703Z,25.17
2017-10-26T05:52:14.675Z,23.33
2017-10-26T05:54:44.388Z,23.07
2017-10-26T05:57:13.437Z,22.80
2017-10-26T05:59:42.378Z,25.53
2017-10-26T06:02:11.357Z,23.00
2017-10-26T06:04:40.709Z,25.13
2017-10-26T06:07:09.671Z,26.10
2017-10-26T06:09:38.654Z,24.20
2017-10-26T06:12:07.758Z,25.70
2017-10-26T06:14:36.708Z,24.33
2017-10-26T06:17:06.458Z,23.07
2017-10-26T06:19:35.879Z,25.10
2017-10-26T06:22:08.685Z,22.07
2017-10-26T06:24:37.740Z,24.10
2017-10-26T06:27:07.518Z,24.33
2017-10-26T06:29:37.828Z,24.67
2017-10-26T06:32:07.825Z,22.70
2017-10-26T06:34:36.814Z,22.70
2017-10-26T06:37:07.300Z,22.23
2017-10-26T06:39:36.244Z,22.83
2017-10-26T06:42:05.571Z,22.40
2017-10-26T06:44:35.177Z,23.50
2017-10-26T06:47:05.043Z,20.67
2017-10-26T06:49:34.881Z,23.03
2017-10-26T06:52:04.710Z,22.87
2017-10-26T06:54:33.779Z,20.87
2017-10-26T06:57:02.844Z,24.80
2017-10-26T06:59:31.856Z,24.80
2017-10-26T07:02:01.679Z,23.53
2017-10-26T07:04:30.666Z,21.60
2017-10-26T07:06:59.715Z,23.17
2017-10-26T07:09:28.813Z,23.07
2017-10-26T07:11:58.590Z,26.30
2017-10-26T07:14:27.757Z,22.63
2017-10-26T07:16:56.863Z,23.97
2017-10-26T07:19:25.870Z,24.70
2017-10-26T07:21:55.726Z,23.40
2017-10-26T07:24:24.757Z,23.87
2017-10-26T07:26:54.559Z,21.50
2017-10-26T07:29:24.552Z,22.70
2017-10-26T07:31:53.591Z,22.67
2017-10-26T07:34:23.337Z,21.97
2017-10-26T07:36:52.276Z,23.10
2017-10-26T07:39:21.281Z,23.43
2017-10-26T07:41:51.000Z,23.37
2017-10-26T07:44:20.357Z,20.70
2017-10-26T07:46:49.762Z,22.03
2017-10-26T07:49:18.774Z,21.27
2017-10-26T07:51:47.902Z,20.67
2017-10-26T07:54:17.248Z,21.53
2017-10-26T07:56:47.676Z,24.30
2017-10-26T07:59:16.728Z,23.20
2017-10-26T08:01:45.801Z,21.70
2017-10-26T08:04:15.544Z,24.95
2017-10-26T08:06:44.569Z,22.10
2017-10-26T08:09:14.414Z,23.10
2017-10-26T08:11:43.367Z,23.43
2017-10-26T08:14:12.407Z,23.60
2017-10-26T08:16:41.501Z,22.90
2017-10-26T08:19:10.524Z,25.47
2017-10-26T08:21:39.538Z,24.43
2017-10-26T08:24:08.633Z,24.70
2017-10-26T08:26:37.687Z,23.77
2017-10-26T08:29:07.271Z,23.97
2017-10-26T08:31:36.554Z,24.00
2017-10-26T08:34:06.455Z,27.67
2017-10-26T08:36:35.978Z,22.33
2017-10-26T08:39:04.985Z,24.27
2017-10-26T08:41:34.023Z,23.07
2017-10-26T08:44:04.662Z,24.43
2017-10-26T08:46:34.766Z,24.90
2017-10-26T08:49:03.752Z,25.17
2017-10-26T08:51:33.604Z,24.77
2017-10-26T08:54:03.425Z,24.60
2017-10-26T08:56:34.572Z,24.70
2017-10-26T08:59:04.365Z,21.97
2017-10-26T09:01:33.469Z,22.30
2017-10-26T09:04:03.085Z,23.23
2017-10-26T09:06:32.142Z,22.80
2017-10-26T09:09:01.568Z,22.30
2017-10-26T09:11:31.292Z,22.20
2017-10-26T09:14:01.383Z,22.40
2017-10-26T09:16:30.717Z,21.83
2017-10-26T09:19:00.610Z,23.20
2017-10-26T09:21:30.185Z,22.90
2017-10-26T09:24:00.128Z,22.37
2017-10-26T09:26:29.966Z,22.30
2017-10-26T09:28:58.982Z,22.83
2017-10-26T09:31:28.032Z,22.03
2017-10-26T09:33:57.120Z,25.17
2017-10-26T09:36:26.507Z,21.17
2017-10-26T09:38:55.606Z,22.77
2017-10-26T09:41:24.557Z,23.60
2017-10-26T09:43:53.881Z,23.10
2017-10-26T09:46:22.860Z,23.00
2017-10-26T09:48:55.479Z,20.77
2017-10-26T09:51:26.642Z,19.03
2017-10-26T09:53:55.746Z,20.60
2017-10-26T09:56:24.881Z,20.30
2017-10-26T09:58:54.643Z,20.70
2017-10-26T10:01:24.421Z,18.97
2017-10-26T10:03:56.599Z,18.40
2017-10-26T10:06:26.500Z,16.87
2017-10-26T10:08:56.782Z,15.60
2017-10-26T10:11:25.871Z,16.90
2017-10-26T10:13:54.899Z,17.13
2017-10-26T10:16:23.917Z,16.33
2017-10-26T10:18:53.713Z,15.70
2017-10-26T10:21:23.419Z,15.70
2017-10-26T10:23:52.703Z,15.67
2017-10-26T10:26:21.734Z,15.53
2017-10-26T10:28:50.815Z,15.80
2017-10-26T10:31:19.952Z,14.33
2017-10-26T10:33:49.016Z,14.07
2017-10-26T10:36:18.547Z,12.03
2017-10-26T10:38:47.616Z,13.37
2017-10-26T10:41:17.422Z,11.63
2017-10-26T10:43:56.467Z,11.67
2017-10-26T10:46:26.263Z,11.33
2017-10-26T10:48:55.290Z,10.97
2017-10-26T10:51:24.353Z,11.07
2017-10-26T10:53:53.515Z,11.30
2017-10-26T10:56:23.782Z,11.07
2017-10-26T10:58:53.741Z,10.17
2017-10-26T11:01:22.747Z,9.67
2017-10-26T11:03:51.775Z,10.50
2017-10-26T11:06:21.671Z,11.30
2017-10-26T11:08:50.720Z,9.77
2017-10-26T11:11:19.745Z,11.10
2017-10-26T11:13:48.863Z,9.40
2017-10-26T11:16:17.818Z,9.80
2017-10-26T11:18:47.957Z,10.23
2017-10-26T11:21:16.988Z,8.50
2017-10-26T11:23:46.476Z,9.47
2017-10-26T11:26:16.236Z,9.57
2017-10-26T11:28:45.290Z,8.77
2017-10-26T11:31:15.242Z,8.70
2017-10-26T11:33:44.323Z,8.87
2017-10-26T11:36:13.379Z,8.83
2017-10-26T11:38:42.995Z,8.33
2017-10-26T11:41:12.373Z,8.83
2017-10-26T11:43:41.392Z,8.50
2017-10-26T11:46:11.133Z,8.97
2017-10-26T11:48:40.226Z,7.60
2017-10-26T11:51:09.251Z,8.07
2017-10-26T11:53:39.242Z,8.27
2017-10-26T11:56:08.709Z,8.17
2017-10-26T11:58:38.440Z,7.00
2017-10-26T12:01:07.423Z,8.17
2017-10-26T12:03:36.762Z,7.67
2017-10-26T12:06:05.808Z,8.90
2017-10-26T12:08:34.771Z,7.67
2017-10-26T12:11:03.713Z,6.40
2017-10-26T12:13:32.663Z,7.03
2017-10-26T12:16:02.457Z,7.37
2017-10-26T12:18:31.405Z,6.20
2017-10-26T12:21:00.374Z,6.33
2017-10-26T12:23:29.328Z,6.67
2017-10-26T12:25:59.013Z,7.10
2017-10-26T12:28:27.954Z,6.80
2017-10-26T12:30:57.332Z,5.90
2017-10-26T12:33:26.548Z,6.03
2017-10-26T12:35:55.506Z,6.60
2017-10-26T12:38:24.470Z,6.50
2017-10-26T12:40:53.832Z,6.97
2017-10-26T12:43:23.525Z,6.23
2017-10-26T12:45:53.196Z,6.47
2017-10-26T12:48:22.159Z,6.37
2017-10-26T12:50:51.117Z,6.30
2017-10-26T12:53:20.063Z,5.90
2017-10-26T12:55:49.019Z,5.70
2017-10-26T12:58:17.963Z,5.93
2017-10-26T13:00:46.932Z,6.27
2017-10-26T13:03:16.018Z,5.10
2017-10-26T13:05:45.085Z,4.73
2017-10-26T13:08:14.397Z,4.33
2017-10-26T13:10:43.701Z,4.70
2017-10-26T13:13:12.635Z,4.40
2017-10-26T13:15:41.607Z,5.27
2017-10-26T13:18:10.567Z,5.50
2017-10-26T13:20:39.650Z,5.17
2017-10-26T13:23:08.591Z,3.90
2017-10-26T13:25:37.533Z,4.13
2017-10-26T13:28:06.479Z,4.57
2017-10-26T13:30:35.452Z,4.27
2017-10-26T13:33:04.423Z,5.10
2017-10-26T13:35:33.356Z,5.30
2017-10-26T13:38:02.340Z,4.30
2017-10-26T13:40:31.293Z,5.07
2017-10-26T13:43:01.012Z,3.93
2017-10-26T13:45:29.947Z,4.20
2017-10-26T13:47:58.916Z,3.87
2017-10-26T13:50:27.929Z,4.00
2017-10-26T13:52:58.272Z,4.85
2017-10-26T13:55:29.092Z,5.10
2017-10-26T13:57:58.049Z,5.07
2017-10-26T14:00:26.974Z,4.60
2017-10-26T14:02:56.016Z,4.63
2017-10-26T14:05:25.698Z,4.13
2017-10-26T14:07:54.671Z,5.20
2017-10-26T14:10:23.604Z,5.17
2017-10-26T14:12:53.322Z,4.63
2017-10-26T14:15:22.250Z,4.63
2017-10-26T14:17:51.195Z,4.13
2017-10-26T14:20:20.231Z,4.63
2017-10-26T14:22:50.011Z,3.70
2017-10-26T14:25:19.497Z,3.90
2017-10-26T14:27:49.225Z,3.70
2017-10-26T14:30:18.903Z,3.70
2017-10-26T14:32:48.604Z,3.47
2017-10-26T14:35:17.605Z,3.23
2017-10-26T14:37:46.692Z,3.00
2017-10-26T14:40:17.329Z,3.50
2017-10-26T14:42:47.120Z,2.63
2017-10-26T14:45:16.200Z,2.33
2017-10-26T14:47:45.250Z,2.30
2017-10-26T14:50:14.621Z,1.90
2017-10-26T14:52:45.658Z,1.60
2017-10-26T14:55:14.713Z,2.03
2017-10-26T14:57:43.714Z,2.13
2017-10-26T15:00:12.668Z,2.27
2017-10-26T15:02:42.640Z,2.20
2017-10-26T15:05:11.764Z,2.07
2017-10-26T15:07:41.670Z,2.30
2017-10-26T15:10:10.691Z,3.50
2017-10-26T15:12:39.656Z,2.23
2017-10-26T15:15:09.518Z,1.73
2017-10-26T15:17:38.548Z,1.63
2017-10-26T15:20:07.597Z,2.17
2017-10-26T15:22:36.531Z,2.07
2017-10-26T15:25:05.573Z,2.17
2017-10-26T15:27:34.907Z,2.20
2017-10-26T15:30:04.713Z,1.97
2017-10-26T15:32:33.685Z,1.60
2017-10-26T15:35:02.672Z,3.30
2017-10-26T15:37:32.409Z,2.47
2017-10-26T15:40:02.717Z,2.10
2017-10-26T15:42:32.765Z,2.57
2017-10-26T15:45:02.552Z,2.63
2017-10-26T15:47:33.326Z,2.70
2017-10-26T15:50:02.969Z,2.53
2017-10-26T15:52:31.905Z,2.20
2017-10-26T15:55:00.906Z,2.40
2017-10-26T15:57:29.943Z,2.43
2017-10-26T15:59:58.908Z,2.37
2017-10-26T16:02:27.969Z,3.13
2017-10-26T16:04:57.433Z,2.90
2017-10-26T16:07:26.455Z,2.93
2017-10-26T16:09:55.440Z,2.97
2017-10-26T16:12:24.384Z,3.17
2017-10-26T16:14:53.804Z,3.17
2017-10-26T16:17:22.742Z,3.10
2017-10-26T16:19:51.722Z,3.20
2017-10-26T16:22:20.672Z,3.97
2017-10-26T16:24:50.209Z,2.90
2017-10-26T16:27:19.140Z,2.93
2017-10-26T16:29:48.157Z,3.20
2017-10-26T16:32:17.101Z,3.60
2017-10-26T16:34:46.038Z,3.90
2017-10-26T16:37:15.003Z,3.10
2017-10-26T16:39:44.349Z,3.60
2017-10-26T16:42:13.315Z,3.47
2017-10-26T16:44:42.274Z,3.00
2017-10-26T16:47:11.264Z,3.23
2017-10-26T16:49:40.229Z,3.80
2017-10-26T16:52:09.232Z,3.80
2017-10-26T16:54:38.167Z,3.10
2017-10-26T16:57:07.905Z,4.50
2017-10-26T16:59:36.874Z,3.47
2017-10-26T17:02:06.613Z,3.07
2017-10-26T17:04:35.560Z,3.97
2017-10-26T17:07:05.383Z,3.50
2017-10-26T17:09:35.085Z,4.40
2017-10-26T17:12:04.574Z,3.70
2017-10-26T17:14:33.526Z,3.13
2017-10-26T17:17:02.472Z,4.57
2017-10-26T17:19:32.191Z,3.17
2017-10-26T17:22:01.905Z,3.30
2017-10-26T17:24:30.859Z,3.70
2017-10-26T17:27:00.361Z,3.40
2017-10-26T17:29:31.022Z,3.40
2017-10-26T17:32:00.771Z,3.53
2017-10-26T17:34:29.751Z,3.00
2017-10-26T17:36:58.737Z,3.60
2017-10-26T17:39:27.707Z,3.40
2017-10-26T17:41:56.708Z,3.33
2017-10-26T17:44:26.431Z,3.67
2017-10-26T17:46:55.492Z,2.73
2017-10-26T17:49:25.200Z,2.73
2017-10-26T17:51:54.190Z,2.93
2017-10-26T17:54:23.908Z,2.93
2017-10-26T17:56:53.286Z,3.07
2017-10-26T17:59:23.012Z,1.97
2017-10-26T18:01:52.767Z,2.80
2017-10-26T18:04:22.543Z,3.33
2017-10-26T18:06:52.285Z,2.67
2017-10-26T18:09:21.240Z,2.80
2017-10-26T18:11:50.991Z,4.93
2017-10-26T18:14:20.784Z,2.93
2017-10-26T18:16:49.805Z,2.47
2017-10-26T18:19:18.799Z,3.00
2017-10-26T18:21:47.842Z,3.20
2017-10-26T18:24:16.870Z,2.67
2017-10-26T18:26:47.685Z,3.20
2017-10-26T18:29:17.593Z,2.47
2017-10-26T18:31:47.326Z,3.10
2017-10-26T18:34:16.773Z,3.20
2017-10-26T18:36:45.884Z,2.87
2017-10-26T18:39:14.943Z,2.30
2017-10-26T18:41:44.645Z,2.60
2017-10-26T18:44:13.604Z,2.57
2017-10-26T18:46:42.626Z,3.03
2017-10-26T18:49:11.646Z,3.90
2017-10-26T18:51:40.649Z,3.87
2017-10-26T18:54:09.743Z,3.63
2017-10-26T18:56:38.720Z,3.00
2017-10-26T18:59:07.699Z,4.50
2017-10-26T19:01:36.688Z,2.83
2017-10-26T19:04:06.763Z,4.40
2017-10-26T19:06:35.743Z,3.30
2017-10-26T19:09:05.493Z,4.10
2017-10-26T19:11:35.031Z,3.10
2017-10-26T19:14:04.046Z,2.73
2017-10-26T19:16:33.428Z,3.73
2017-10-26T19:19:02.450Z,3.00
2017-10-26T19:21:31.434Z,2.93
2017-10-26T19:24:01.338Z,2.80
2017-10-26T19:26:30.773Z,3.53
2017-10-26T19:29:00.699Z,3.37
2017-10-26T19:31:29.882Z,2.83
2017-10-26T19:33:59.126Z,2.90
2017-10-26T19:36:28.411Z,2.73
2017-10-26T19:38:58.338Z,2.87
2017-10-26T19:41:27.353Z,3.27
2017-10-26T19:44:04.890Z,2.80
2017-10-26T19:46:34.049Z,2.97
2017-10-26T19:49:04.659Z,3.03
2017-10-26T19:51:33.680Z,2.60
2017-10-26T19:54:03.401Z,3.27
2017-10-26T19:56:32.405Z,2.90
2017-10-26T19:59:02.107Z,2.90
2017-10-26T20:01:32.089Z,3.10
2017-10-26T20:04:01.065Z,4.83
2017-10-26T20:06:30.892Z,4.83
2017-10-26T20:09:00.727Z,3.73
2017-10-26T20:11:29.757Z,3.30
2017-10-26T20:13:58.721Z,3.40
2017-10-26T20:16:27.759Z,3.03
2017-10-26T20:18:56.728Z,3.20
2017-10-26T20:21:25.738Z,3.13
2017-10-26T20:23:54.757Z,3.37
2017-10-26T20:26:23.712Z,3.30
2017-10-26T20:28:52.720Z,3.60
2017-10-26T20:31:21.685Z,2.87
2017-10-26T20:33:50.736Z,2.90
2017-10-26T20:36:20.528Z,3.10
2017-10-26T20:38:50.004Z,4.00
2017-10-26T20:41:19.084Z,4.40
2017-10-26T20:43:48.047Z,3.00
2017-10-26T20:46:17.008Z,3.27
2017-10-26T20:48:46.750Z,4.07
2017-10-26T20:51:21.415Z,3.50
2017-10-26T20:53:56.013Z,3.00
2017-10-26T20:56:30.565Z,3.67
2017-10-26T20:59:05.213Z,3.23
2017-10-26T21:01:40.275Z,3.47
2017-10-26T21:04:14.929Z,4.20
2017-10-26T21:06:43.915Z,3.40
2017-10-26T21:09:18.934Z,3.63
2017-10-26T21:11:53.519Z,4.23
2017-10-26T21:14:28.252Z,5.97
2017-10-26T21:16:57.980Z,5.40
2017-10-26T21:19:26.985Z,3.80
2017-10-26T21:21:56.123Z,4.00
2017-10-26T21:24:25.475Z,4.73
2017-10-26T21:26:54.456Z,3.40
2017-10-26T21:29:24.161Z,3.60
2017-10-26T21:31:53.537Z,3.77
2017-10-26T21:34:22.483Z,4.70
2017-10-26T21:36:51.449Z,3.70
2017-10-26T21:39:20.822Z,4.90
2017-10-26T21:41:49.846Z,4.10
2017-10-26T21:44:19.573Z,5.00
2017-10-26T21:46:48.520Z,5.10
2017-10-26T21:49:18.264Z,4.00
2017-10-26T21:51:47.192Z,3.60
2017-10-26T21:54:16.536Z,3.13
2017-10-26T21:56:46.269Z,3.80
2017-10-26T21:59:15.629Z,4.37
2017-10-26T22:01:44.588Z,3.87
2017-10-26T22:04:13.563Z,3.73
2017-10-26T22:06:42.617Z,3.90
2017-10-26T22:09:11.564Z,3.47
2017-10-26T22:11:40.659Z,5.57
2017-10-26T22:14:09.672Z,4.90
2017-10-26T22:16:38.644Z,5.30
2017-10-26T22:19:07.641Z,4.67
2017-10-26T22:21:36.577Z,4.00
2017-10-26T22:24:06.275Z,4.50
2017-10-26T22:26:35.995Z,4.43
2017-10-26T22:29:05.336Z,4.30
2017-10-26T22:31:35.125Z,4.80
2017-10-26T22:34:05.204Z,3.70
2017-10-26T22:36:34.946Z,4.90
2017-10-26T22:39:03.880Z,4.43
2017-10-26T22:41:32.868Z,4.00
2017-10-26T22:44:02.579Z,4.43
2017-10-26T22:46:31.705Z,4.30
2017-10-26T22:49:01.396Z,4.37
2017-10-26T22:51:30.355Z,4.10
2017-10-26T22:53:59.321Z,4.03
2017-10-26T22:56:28.251Z,4.17
2017-10-26T22:58:57.187Z,5.63
2017-10-26T23:01:26.546Z,8.63
2017-10-26T23:03:55.522Z,10.67
2017-10-26T23:06:24.478Z,11.43
2017-10-26T23:08:53.446Z,11.10
2017-10-26T23:11:23.162Z,10.93
2017-10-26T23:13:52.114Z,10.63
2017-10-26T23:16:21.460Z,8.00
2017-10-26T23:18:50.534Z,8.47
2017-10-26T23:21:19.649Z,6.87
2017-10-26T23:23:49.406Z,6.33
2017-10-26T23:26:18.383Z,5.60
2017-10-26T23:28:47.342Z,6.67
2017-10-26T23:31:17.128Z,4.30
2017-10-26T23:33:46.092Z,4.33
2017-10-26T23:36:15.043Z,5.00
2017-10-26T23:38:44.016Z,4.73
2017-10-26T23:41:12.948Z,4.33
2017-10-26T23:43:42.681Z,4.40
2017-10-26T23:46:11.621Z,3.73
2017-10-26T23:48:41.357Z,3.30
2017-10-26T23:51:10.275Z,3.77
2017-10-26T23:53:39.629Z,3.73
2017-10-26T23:56:08.563Z,3.53
2017-10-26T23:58:37.525Z,3.83
